createdAt,value
2023-05-14T00:00:45.521Z,20.65
2023-05-14T00:03:12.365Z,20.27
2023-05-14T00:05:39.072Z,20.50
2023-05-14T00:08:06.153Z,20.49
2023-05-14T00:10:32.948Z,20.19
2023-05-14T00:12:59.516Z,20.66
2023-05-14T00:15:26.082Z,20.27
2023-05-14T00:17:52.871Z,20.62
2023-05-14T00:20:19.695Z,20.33
2023-05-14T00:22:46.311Z,20.89
2023-05-14T00:25:12.917Z,20.43
2023-05-14T00:27:39.520Z,20.22
2023-05-14T00:30:07.005Z,20.60
2023-05-14T00:32:33.815Z,20.32
2023-05-14T00:35:00.627Z,20.34
2023-05-14T00:37:27.266Z,21.24
2023-05-14T00:39:53.863Z,20.94
2023-05-14T00:42:20.569Z,20.72
2023-05-14T00:44:47.172Z,20.55
2023-05-14T00:47:13.906Z,20.90
2023-05-14T00:49:41.233Z,20.92
2023-05-14T00:52:08.694Z,20.67
2023-05-14T00:54:36.441Z,20.41
2023-05-14T00:57:04.882Z,20.18
2023-05-14T00:59:32.076Z,19.97
2023-05-14T01:01:58.920Z,20.31
2023-05-14T01:04:25.630Z,20.61
2023-05-14T01:07:10.547Z,20.72
2023-05-14T01:09:39.986Z,20.19
2023-05-14T01:12:27.683Z,19.69
2023-05-14T01:15:06.596Z,19.78
2023-05-14T01:18:01.431Z,19.61
2023-05-14T01:20:28.122Z,19.81
2023-05-14T01:22:54.768Z,19.55
2023-05-14T01:25:21.386Z,20.05
2023-05-14T01:28:12.910Z,19.44
2023-05-14T01:30:49.186Z,19.77
2023-05-14T01:33:18.318Z,19.41
2023-05-14T01:35:45.983Z,20.18
2023-05-14T01:38:17.791Z,19.70
2023-05-14T01:40:46.075Z,19.93
2023-05-14T01:43:13.769Z,19.96
2023-05-14T01:45:40.498Z,20.22
2023-05-14T01:48:07.466Z,20.54
2023-05-14T01:50:34.222Z,19.97
2023-05-14T01:53:01.100Z,19.93
2023-05-14T01:55:27.688Z,20.08
2023-05-14T01:57:54.628Z,20.01
2023-05-14T02:00:26.156Z,20.16
2023-05-14T02:02:53.207Z,20.47
2023-05-14T02:05:20.157Z,20.32
2023-05-14T02:07:46.843Z,20.74
2023-05-14T02:10:13.600Z,19.99
2023-05-14T02:12:40.251Z,20.14
2023-05-14T02:15:08.919Z,20.56
2023-05-14T02:17:35.646Z,19.96
2023-05-14T02:20:02.297Z,20.23
2023-05-14T02:22:28.857Z,20.21
2023-05-14T02:24:56.108Z,20.46
2023-05-14T02:27:22.757Z,20.66
2023-05-14T02:29:49.481Z,19.97
2023-05-14T02:32:16.059Z,20.31
2023-05-14T02:34:42.644Z,20.59
2023-05-14T02:37:09.209Z,19.60
2023-05-14T02:39:35.846Z,19.96
2023-05-14T02:42:02.503Z,20.48
2023-05-14T02:44:29.122Z,20.20
2023-05-14T02:46:55.804Z,20.52
2023-05-14T02:49:22.452Z,20.17
2023-05-14T02:51:49.015Z,20.21
2023-05-14T02:54:16.690Z,19.94
2023-05-14T02:56:43.327Z,19.89
2023-05-14T02:59:09.955Z,19.77
2023-05-14T03:01:37.089Z,20.06
2023-05-14T03:04:04.298Z,20.01
2023-05-14T03:06:31.483Z,20.05
2023-05-14T03:08:58.097Z,19.92
2023-05-14T03:11:24.800Z,20.07
2023-05-14T03:13:51.532Z,19.49
2023-05-14T03:16:18.154Z,19.98
2023-05-14T03:18:44.843Z,20.03
2023-05-14T03:21:11.475Z,19.94
2023-05-14T03:23:38.085Z,20.23
2023-05-14T03:26:04.965Z,20.01
2023-05-14T03:28:31.562Z,20.18
2023-05-14T03:30:58.354Z,20.10
2023-05-14T03:33:25.227Z,20.38
2023-05-14T03:35:51.932Z,20.61
2023-05-14T03:38:18.625Z,20.72
2023-05-14T03:40:45.605Z,19.86
2023-05-14T03:43:12.224Z,19.98
2023-05-14T03:45:39.819Z,20.26
2023-05-14T03:48:06.819Z,19.97
2023-05-14T03:50:33.596Z,20.21
2023-05-14T03:53:00.240Z,20.41
2023-05-14T03:55:26.942Z,20.09
2023-05-14T03:57:53.586Z,19.96
2023-05-14T04:00:21.297Z,20.29
2023-05-14T04:02:48.218Z,20.07
2023-05-14T04:05:14.872Z,19.72
2023-05-14T04:07:41.490Z,19.39
2023-05-14T04:10:08.684Z,19.70
2023-05-14T04:12:35.338Z,19.52
2023-05-14T04:15:02.038Z,19.50
2023-05-14T04:17:28.684Z,19.04
2023-05-14T04:19:55.382Z,19.86
2023-05-14T04:22:21.985Z,19.13
2023-05-14T04:24:48.566Z,18.39
2023-05-14T04:27:21.216Z,19.03
2023-05-14T04:29:48.929Z,18.78
2023-05-14T04:32:15.703Z,18.98
2023-05-14T04:34:42.417Z,17.97
2023-05-14T04:37:10.095Z,18.47
2023-05-14T04:39:36.763Z,18.37
2023-05-14T04:42:03.628Z,18.09
2023-05-14T04:44:30.486Z,18.03
2023-05-14T04:46:57.185Z,18.29
2023-05-14T04:49:23.796Z,17.61
2023-05-14T04:51:50.715Z,17.80
2023-05-14T04:54:17.413Z,17.52
2023-05-14T04:56:44.084Z,17.57
2023-05-14T04:59:10.723Z,17.11
2023-05-14T05:01:37.501Z,16.67
2023-05-14T05:04:04.278Z,17.17
2023-05-14T05:06:31.677Z,16.94
2023-05-14T05:08:59.547Z,16.61
2023-05-14T05:11:27.199Z,16.21
2023-05-14T05:13:53.783Z,16.63
2023-05-14T05:16:20.468Z,16.07
2023-05-14T05:18:47.245Z,16.48
2023-05-14T05:21:13.853Z,16.33
2023-05-14T05:23:40.394Z,15.96
2023-05-14T05:26:07.102Z,16.33
2023-05-14T05:28:33.665Z,16.22
2023-05-14T05:31:00.376Z,16.49
2023-05-14T05:33:27.169Z,16.23
2023-05-14T05:35:53.783Z,15.98
2023-05-14T05:38:20.382Z,15.92
2023-05-14T05:40:46.966Z,16.03
2023-05-14T05:43:14.700Z,15.67
2023-05-14T05:45:41.548Z,15.84
2023-05-14T05:48:08.203Z,15.90
2023-05-14T05:50:34.892Z,15.80
2023-05-14T05:53:01.553Z,15.69
2023-05-14T05:55:28.881Z,14.89
2023-05-14T05:57:56.112Z,15.63
2023-05-14T06:00:24.038Z,15.31
2023-05-14T06:02:50.926Z,15.03
2023-05-14T06:05:17.654Z,15.18
2023-05-14T06:07:44.271Z,15.43
2023-05-14T06:10:11.006Z,15.24
2023-05-14T06:12:37.637Z,15.05
2023-05-14T06:15:04.730Z,15.17
2023-05-14T06:17:31.333Z,15.35
2023-05-14T06:19:57.946Z,15.32
2023-05-14T06:22:24.550Z,14.78
2023-05-14T06:24:51.174Z,14.89
2023-05-14T06:27:17.788Z,14.65
2023-05-14T06:29:44.395Z,14.45
2023-05-14T06:32:11.854Z,14.08
2023-05-14T06:34:38.546Z,13.80
2023-05-14T06:37:05.572Z,13.98
2023-05-14T06:39:32.217Z,14.17
2023-05-14T06:41:58.819Z,14.29
2023-05-14T06:44:25.484Z,13.96
2023-05-14T06:46:52.093Z,13.49
2023-05-14T06:49:18.738Z,13.13
2023-05-14T06:51:45.859Z,13.37
2023-05-14T06:54:12.905Z,13.41
2023-05-14T06:56:39.528Z,13.44
2023-05-14T06:59:06.191Z,12.94
2023-05-14T07:01:32.803Z,13.17
2023-05-14T07:03:59.480Z,12.71
2023-05-14T07:06:26.099Z,12.68
2023-05-14T07:08:53.309Z,12.63
2023-05-14T07:11:19.946Z,12.27
2023-05-14T07:13:46.544Z,12.17
2023-05-14T07:16:13.243Z,12.07
2023-05-14T07:18:40.335Z,11.70
2023-05-14T07:21:07.083Z,11.98
2023-05-14T07:23:36.181Z,11.91
2023-05-14T07:26:03.339Z,12.00
2023-05-14T07:28:30.020Z,11.46
2023-05-14T07:30:56.807Z,10.96
2023-05-14T07:33:24.138Z,11.14
2023-05-14T07:35:51.556Z,10.86
2023-05-14T07:38:19.740Z,10.63
2023-05-14T07:40:46.390Z,10.61
2023-05-14T07:43:14.547Z,10.93
2023-05-14T07:45:41.377Z,10.90
2023-05-14T07:48:08.323Z,10.84
2023-05-14T07:50:34.988Z,11.22
2023-05-14T07:53:01.640Z,11.35
2023-05-14T07:55:28.323Z,11.88
2023-05-14T07:57:54.980Z,11.72
2023-05-14T08:00:21.676Z,11.19
2023-05-14T08:02:49.301Z,11.27
2023-05-14T08:05:16.644Z,11.29
2023-05-14T08:07:43.443Z,11.08
2023-05-14T08:10:10.644Z,10.88
2023-05-14T08:12:37.332Z,11.45
2023-05-14T08:15:04.467Z,11.84
2023-05-14T08:17:31.066Z,11.55
2023-05-14T08:19:57.686Z,12.18
2023-05-14T08:22:24.293Z,12.33
2023-05-14T08:24:50.896Z,12.18
2023-05-14T08:27:17.523Z,12.35
2023-05-14T08:29:44.142Z,11.62
2023-05-14T08:32:22.166Z,12.11
2023-05-14T08:34:50.770Z,11.49
2023-05-14T08:37:17.561Z,11.83
2023-05-14T08:39:44.327Z,11.88
2023-05-14T08:42:13.500Z,10.88
2023-05-14T08:44:50.182Z,10.96
2023-05-14T08:47:21.380Z,10.43
2023-05-14T08:49:53.149Z,10.68
2023-05-14T08:52:22.213Z,10.72
2023-05-14T08:54:52.718Z,10.08
2023-05-14T08:57:20.816Z,10.10
2023-05-14T08:59:47.719Z,9.86
2023-05-14T09:02:16.929Z,10.01
2023-05-14T09:04:44.268Z,9.51
2023-05-14T09:07:11.587Z,9.57
2023-05-14T09:09:38.656Z,9.39
2023-05-14T09:12:06.510Z,9.32
2023-05-14T09:14:33.605Z,9.42
2023-05-14T09:17:00.306Z,9.62
2023-05-14T09:19:27.154Z,9.29
2023-05-14T09:21:58.567Z,8.85
2023-05-14T09:24:29.061Z,8.69
2023-05-14T09:26:57.556Z,8.42
2023-05-14T09:29:29.470Z,8.45
2023-05-14T09:31:58.126Z,7.86
2023-05-14T09:34:32.715Z,8.32
2023-05-14T09:37:07.970Z,7.74
2023-05-14T09:39:36.661Z,7.95
2023-05-14T09:42:04.062Z,7.98
2023-05-14T09:44:31.830Z,8.25
2023-05-14T09:46:58.714Z,7.75
2023-05-14T09:49:25.410Z,7.78
2023-05-14T09:51:51.996Z,7.82
2023-05-14T09:54:18.662Z,7.86
2023-05-14T09:56:45.503Z,8.05
2023-05-14T09:59:12.207Z,7.94
2023-05-14T10:01:41.438Z,8.14
2023-05-14T10:04:11.029Z,7.79
2023-05-14T10:06:39.627Z,7.20
2023-05-14T10:09:12.954Z,7.83
2023-05-14T10:11:43.596Z,7.13
2023-05-14T10:14:28.248Z,6.99
2023-05-14T10:16:58.581Z,7.43
2023-05-14T10:19:26.689Z,7.03
2023-05-14T10:21:57.225Z,7.47
2023-05-14T10:24:25.600Z,7.39
2023-05-14T10:26:52.758Z,7.58
2023-05-14T10:29:19.380Z,7.15
2023-05-14T10:31:56.238Z,7.60
2023-05-14T10:34:38.917Z,7.53
2023-05-14T10:37:09.216Z,7.28
2023-05-14T10:39:53.726Z,6.95
2023-05-14T10:42:46.326Z,7.58
2023-05-14T10:45:14.916Z,7.35
2023-05-14T10:47:48.194Z,6.97
2023-05-14T10:50:16.142Z,7.33
2023-05-14T10:52:44.774Z,7.03
2023-05-14T10:55:17.004Z,7.16
2023-05-14T10:57:46.054Z,7.49
2023-05-14T11:00:14.633Z,7.47
2023-05-14T11:02:43.533Z,7.25
2023-05-14T11:05:16.947Z,6.80
2023-05-14T11:07:46.080Z,6.84
2023-05-14T11:10:15.029Z,7.15
2023-05-14T11:12:44.734Z,6.89
2023-05-14T11:15:14.463Z,6.81
2023-05-14T11:17:43.393Z,6.68
2023-05-14T11:20:11.271Z,6.54
2023-05-14T11:22:39.836Z,7.01
2023-05-14T11:25:07.713Z,6.79
2023-05-14T11:27:38.584Z,6.82
2023-05-14T11:30:06.638Z,6.51
2023-05-14T11:32:33.849Z,7.02
2023-05-14T11:35:00.771Z,6.94
2023-05-14T11:37:27.390Z,6.60
2023-05-14T11:39:55.752Z,6.13
2023-05-14T11:42:23.700Z,6.38
2023-05-14T11:44:52.087Z,6.57
2023-05-14T11:47:21.457Z,6.73
2023-05-14T11:49:49.407Z,6.83
2023-05-14T11:52:19.420Z,6.34
2023-05-14T11:54:46.333Z,6.87
2023-05-14T11:57:16.221Z,7.15
2023-05-14T11:59:43.556Z,7.19
2023-05-14T12:02:12.495Z,7.59
2023-05-14T12:04:40.622Z,7.26
2023-05-14T12:07:14.606Z,6.44
2023-05-14T12:09:49.583Z,6.24
2023-05-14T12:12:22.141Z,6.82
2023-05-14T12:14:50.583Z,6.61
2023-05-14T12:17:17.396Z,5.93
2023-05-14T12:19:46.435Z,6.14
2023-05-14T12:22:17.165Z,5.88
2023-05-14T12:24:53.297Z,6.51
2023-05-14T12:27:26.239Z,6.45
2023-05-14T12:30:27.558Z,6.38
2023-05-14T12:32:54.274Z,5.80
2023-05-14T12:35:22.495Z,5.82
2023-05-14T12:37:49.526Z,6.07
2023-05-14T12:40:16.198Z,5.82
2023-05-14T12:42:42.830Z,6.56
2023-05-14T12:45:09.806Z,6.25
2023-05-14T12:47:37.185Z,6.32
2023-05-14T12:50:05.833Z,6.50
2023-05-14T12:52:38.619Z,6.17
2023-05-14T12:55:10.087Z,6.45
2023-05-14T12:57:38.935Z,6.19
2023-05-14T13:00:07.904Z,5.98
2023-05-14T13:02:42.395Z,6.66
2023-05-14T13:05:10.968Z,6.42
2023-05-14T13:07:38.194Z,6.54
2023-05-14T13:10:08.485Z,6.51
2023-05-14T13:12:35.172Z,6.43
2023-05-14T13:15:01.995Z,6.68
2023-05-14T13:17:28.674Z,6.32
2023-05-14T13:19:55.544Z,6.68
2023-05-14T13:22:22.118Z,6.61
2023-05-14T13:24:48.776Z,7.18
2023-05-14T13:27:15.431Z,6.98
2023-05-14T13:29:42.303Z,7.02
2023-05-14T13:32:08.984Z,6.99
2023-05-14T13:34:36.298Z,7.03
2023-05-14T13:37:03.983Z,6.88
2023-05-14T13:39:30.687Z,6.97
2023-05-14T13:41:57.229Z,7.06
2023-05-14T13:44:24.309Z,6.76
2023-05-14T13:46:51.180Z,7.02
2023-05-14T13:49:17.993Z,6.96
2023-05-14T13:51:44.809Z,6.62
2023-05-14T13:54:11.473Z,6.49
2023-05-14T13:56:38.116Z,6.55
2023-05-14T13:59:04.971Z,6.66
2023-05-14T14:01:31.891Z,6.46
2023-05-14T14:03:58.675Z,6.66
2023-05-14T14:06:27.333Z,6.54
2023-05-14T14:08:54.054Z,6.48
2023-05-14T14:11:21.055Z,6.42
2023-05-14T14:13:47.651Z,6.72
2023-05-14T14:16:14.394Z,6.95
2023-05-14T14:18:43.008Z,6.68
2023-05-14T14:21:10.192Z,6.91
2023-05-14T14:23:36.811Z,6.28
2023-05-14T14:26:03.788Z,6.30
2023-05-14T14:28:30.699Z,7.09
2023-05-14T14:30:57.303Z,7.34
2023-05-14T14:33:23.899Z,6.56
2023-05-14T14:35:50.447Z,6.42
2023-05-14T14:38:17.055Z,7.26
2023-05-14T14:40:43.718Z,7.41
2023-05-14T14:43:10.312Z,7.29
2023-05-14T14:45:36.988Z,6.52
2023-05-14T14:48:33.912Z,6.81
2023-05-14T14:51:01.548Z,6.46
2023-05-14T14:53:28.205Z,6.28
2023-05-14T14:55:55.598Z,6.09
2023-05-14T14:58:22.899Z,5.82
2023-05-14T15:00:53.059Z,6.09
2023-05-14T15:03:21.247Z,6.21
2023-05-14T15:05:49.055Z,6.40
2023-05-14T15:08:15.915Z,6.74
2023-05-14T15:10:42.798Z,7.51
2023-05-14T15:13:09.453Z,6.81
2023-05-14T15:15:36.361Z,7.33
2023-05-14T15:18:04.327Z,8.51
2023-05-14T15:20:31.131Z,7.14
2023-05-14T15:22:57.865Z,6.82
2023-05-14T15:25:26.413Z,6.63
2023-05-14T15:27:53.355Z,6.52
2023-05-14T15:30:20.107Z,6.60
2023-05-14T15:32:46.936Z,6.77
2023-05-14T15:35:13.849Z,6.91
2023-05-14T15:37:44.195Z,7.01
2023-05-14T15:40:11.988Z,6.95
2023-05-14T15:42:44.441Z,6.96
2023-05-14T15:45:13.322Z,6.55
2023-05-14T15:47:41.187Z,7.40
2023-05-14T15:50:09.092Z,7.33
2023-05-14T15:52:36.486Z,7.40
2023-05-14T15:55:04.410Z,7.35
2023-05-14T15:57:31.674Z,7.37
2023-05-14T15:59:58.316Z,6.70
2023-05-14T16:02:24.977Z,7.39
2023-05-14T16:04:51.589Z,7.32
2023-05-14T16:07:18.184Z,7.45
2023-05-14T16:09:44.776Z,7.44
2023-05-14T16:12:12.438Z,7.84
2023-05-14T16:14:41.216Z,7.91
2023-05-14T16:17:08.832Z,8.13
2023-05-14T16:19:35.513Z,7.72
2023-05-14T16:22:02.164Z,8.18
2023-05-14T16:24:28.771Z,8.31
2023-05-14T16:26:56.076Z,8.38
2023-05-14T16:29:22.812Z,8.36
2023-05-14T16:31:49.575Z,8.51
2023-05-14T16:34:16.227Z,7.95
2023-05-14T16:36:43.283Z,8.40
2023-05-14T16:39:11.400Z,8.43
2023-05-14T16:41:38.057Z,8.41
2023-05-14T16:44:04.840Z,8.63
2023-05-14T16:46:32.114Z,8.70
2023-05-14T16:48:58.986Z,8.67
2023-05-14T16:51:25.664Z,8.56
2023-05-14T16:53:52.441Z,7.90
2023-05-14T16:56:21.365Z,8.45
2023-05-14T16:58:48.018Z,8.06
2023-05-14T17:01:14.645Z,8.05
2023-05-14T17:03:41.700Z,8.01
2023-05-14T17:06:10.043Z,8.12
2023-05-14T17:08:36.802Z,8.57
2023-05-14T17:11:05.712Z,8.30
2023-05-14T17:13:33.310Z,8.22
2023-05-14T17:16:00.522Z,7.93
2023-05-14T17:18:27.240Z,8.56
2023-05-14T17:20:53.910Z,9.13
2023-05-14T17:23:20.618Z,9.67
2023-05-14T17:25:47.271Z,9.77
2023-05-14T17:28:13.854Z,9.74
2023-05-14T17:30:40.816Z,9.96
2023-05-14T17:33:07.508Z,9.98
2023-05-14T17:35:36.179Z,10.71
2023-05-14T17:38:03.260Z,10.77
2023-05-14T17:40:29.915Z,10.73
2023-05-14T17:42:56.506Z,10.78
2023-05-14T17:45:23.440Z,10.74
2023-05-14T17:47:51.433Z,10.29
2023-05-14T17:50:18.787Z,10.58
2023-05-14T17:52:46.139Z,10.95
2023-05-14T17:55:13.066Z,10.23
2023-05-14T17:57:39.987Z,10.05
2023-05-14T18:00:08.207Z,10.22
2023-05-14T18:02:35.141Z,10.72
2023-05-14T18:05:02.824Z,10.75
2023-05-14T18:07:30.721Z,10.50
2023-05-14T18:09:57.839Z,10.38
2023-05-14T18:12:27.523Z,10.85
2023-05-14T18:14:54.322Z,10.66
2023-05-14T18:17:21.165Z,9.93
2023-05-14T18:19:47.854Z,9.99
2023-05-14T18:22:15.423Z,9.87
2023-05-14T18:24:44.122Z,9.78
2023-05-14T18:27:11.046Z,10.24
2023-05-14T18:29:37.735Z,9.70
2023-05-14T18:32:04.946Z,9.78
2023-05-14T18:34:31.551Z,10.03
2023-05-14T18:36:58.418Z,9.88
2023-05-14T18:39:25.028Z,9.96
2023-05-14T18:41:52.020Z,10.27
2023-05-14T18:44:18.785Z,9.32
2023-05-14T18:46:45.752Z,8.96
2023-05-14T18:49:12.538Z,9.03
2023-05-14T18:51:39.129Z,8.96
2023-05-14T18:54:05.856Z,8.63
2023-05-14T18:56:32.585Z,8.70
2023-05-14T18:58:59.378Z,9.01
2023-05-14T19:01:26.133Z,8.50
2023-05-14T19:03:53.220Z,8.65
2023-05-14T19:06:20.176Z,8.98
2023-05-14T19:08:46.778Z,8.96
2023-05-14T19:11:13.407Z,9.28
2023-05-14T19:13:40.031Z,9.32
2023-05-14T19:16:06.717Z,9.77
2023-05-14T19:18:33.690Z,9.63
2023-05-14T19:21:00.535Z,9.68
2023-05-14T19:23:27.139Z,9.61
2023-05-14T19:25:53.809Z,10.39
2023-05-14T19:28:20.517Z,10.69
2023-05-14T19:30:47.720Z,10.78
2023-05-14T19:33:14.365Z,10.58
2023-05-14T19:35:40.936Z,10.46
2023-05-14T19:38:09.113Z,10.20
2023-05-14T19:40:35.713Z,9.67
2023-05-14T19:43:02.306Z,9.23
2023-05-14T19:45:29.004Z,9.27
2023-05-14T19:47:55.834Z,9.19
2023-05-14T19:50:22.453Z,9.21
2023-05-14T19:52:49.046Z,9.52
2023-05-14T19:55:15.641Z,9.69
2023-05-14T19:57:42.244Z,10.05
2023-05-14T20:00:09.462Z,10.51
2023-05-14T20:02:36.120Z,10.79
2023-05-14T20:05:02.828Z,10.61
2023-05-14T20:07:29.458Z,10.75
2023-05-14T20:09:56.263Z,10.47
2023-05-14T20:12:22.916Z,10.78
2023-05-14T20:14:49.517Z,10.72
2023-05-14T20:17:16.291Z,11.20
2023-05-14T20:19:43.749Z,11.45
2023-05-14T20:22:10.445Z,11.34
2023-05-14T20:24:37.072Z,11.22
2023-05-14T20:27:03.936Z,11.35
2023-05-14T20:29:30.518Z,11.35
2023-05-14T20:31:57.059Z,11.14
2023-05-14T20:34:23.710Z,10.98
2023-05-14T20:36:50.704Z,11.23
2023-05-14T20:39:17.300Z,11.08
2023-05-14T20:41:45.613Z,10.83
2023-05-14T20:44:12.265Z,10.93
2023-05-14T20:46:39.139Z,11.08
2023-05-14T20:49:05.760Z,10.68
2023-05-14T20:51:32.675Z,11.45
2023-05-14T20:53:59.315Z,10.81
2023-05-14T20:56:26.472Z,11.30
2023-05-14T20:58:53.095Z,11.25
2023-05-14T21:01:19.726Z,11.45
2023-05-14T21:03:46.456Z,11.66
2023-05-14T21:06:13.235Z,11.54
2023-05-14T21:08:40.406Z,11.50
2023-05-14T21:11:07.041Z,11.84
2023-05-14T21:13:33.676Z,11.82
2023-05-14T21:16:00.599Z,11.96
2023-05-14T21:18:30.590Z,11.88
2023-05-14T21:20:57.300Z,12.08
2023-05-14T21:23:23.945Z,11.80
2023-05-14T21:25:51.108Z,11.72
2023-05-14T21:28:17.676Z,11.86
2023-05-14T21:30:44.315Z,11.92
2023-05-14T21:33:11.059Z,12.24
2023-05-14T21:35:37.756Z,11.77
2023-05-14T21:38:04.523Z,12.48
2023-05-14T21:40:31.259Z,11.94
2023-05-14T21:42:57.856Z,11.75
2023-05-14T21:45:24.438Z,11.38
2023-05-14T21:47:51.189Z,11.80
2023-05-14T21:50:17.957Z,11.72
2023-05-14T21:52:44.575Z,11.79
2023-05-14T21:55:11.345Z,12.40
2023-05-14T21:57:38.164Z,12.40
2023-05-14T22:00:08.671Z,12.38
2023-05-14T22:02:35.299Z,12.35
2023-05-14T22:05:02.015Z,12.09
2023-05-14T22:07:28.641Z,12.37
2023-05-14T22:09:55.892Z,12.25
2023-05-14T22:12:22.500Z,12.57
2023-05-14T22:14:49.129Z,12.13
2023-05-14T22:17:15.930Z,12.75
2023-05-14T22:19:42.543Z,12.92
2023-05-14T22:22:09.147Z,12.60
2023-05-14T22:24:35.745Z,12.98
2023-05-14T22:27:02.405Z,13.50
2023-05-14T22:29:29.008Z,13.33
2023-05-14T22:31:55.811Z,13.48
2023-05-14T22:34:22.486Z,13.61
2023-05-14T22:36:49.097Z,13.31
2023-05-14T22:39:15.774Z,13.58
2023-05-14T22:41:42.380Z,14.07
2023-05-14T22:44:08.928Z,13.97
2023-05-14T22:46:35.795Z,13.47
2023-05-14T22:49:02.386Z,14.42
2023-05-14T22:51:29.006Z,14.53
2023-05-14T22:53:55.574Z,14.71
2023-05-14T22:56:22.312Z,14.80
2023-05-14T22:58:48.941Z,15.17
2023-05-14T23:01:15.832Z,15.26
2023-05-14T23:03:42.458Z,15.23
2023-05-14T23:06:09.081Z,15.66
2023-05-14T23:08:35.701Z,15.63
2023-05-14T23:11:02.286Z,15.58
2023-05-14T23:13:28.892Z,16.00
2023-05-14T23:15:55.521Z,16.04
2023-05-14T23:18:23.897Z,16.14
2023-05-14T23:20:50.700Z,15.63
2023-05-14T23:23:17.337Z,15.85
2023-05-14T23:25:44.194Z,16.05
2023-05-14T23:28:11.183Z,16.37
2023-05-14T23:30:37.915Z,16.08
2023-05-14T23:33:04.726Z,16.38
2023-05-14T23:35:31.474Z,17.02
2023-05-14T23:37:58.204Z,16.91
2023-05-14T23:40:24.866Z,17.04
2023-05-14T23:42:51.641Z,17.04
2023-05-14T23:45:18.331Z,16.91
2023-05-14T23:47:45.146Z,17.61
2023-05-14T23:50:11.738Z,17.08
2023-05-14T23:52:38.320Z,17.58
2023-05-14T23:55:05.368Z,17.70
2023-05-14T23:57:32.078Z,17.30
2023-05-14T23:59:58.790Z,17.94
